sensor_id;sensor_type;location;lat;lon;timestamp;P1;durP1;ratioP1;P2;durP2;ratioP2
15293;SDS011;7748;52.474;13.454;2022-12-10T00:01:46;22.45;;;11.60;;
15293;SDS011;7748;52.474;13.454;2022-12-10T00:04:15;19.67;;;12.13;;
15293;SDS011;7748;52.474;13.454;2022-12-10T00:06:43;20.63;;;10.88;;
15293;SDS011;7748;52.474;13.454;2022-12-10T00:09:12;21.55;;;10.02;;
15293;SDS011;7748;52.474;13.454;2022-12-10T00:11:43;19.80;;;10.95;;
15293;SDS011;7748;52.474;13.454;2022-12-10T00:14:11;20.77;;;12.15;;
15293;SDS011;7748;52.474;13.454;2022-12-10T00:16:40;17.08;;;11.27;;
15293;SDS011;7748;52.474;13.454;2022-12-10T00:19:09;15.68;;;10.90;;
15293;SDS011;7748;52.474;13.454;2022-12-10T00:21:37;17.50;;;10.57;;
15293;SDS011;7748;52.474;13.454;2022-12-10T00:24:05;21.83;;;12.07;;
15293;SDS011;7748;52.474;13.454;2022-12-10T00:26:36;23.83;;;12.20;;
15293;SDS011;7748;52.474;13.454;2022-12-10T00:29:06;21.45;;;10.75;;
15293;SDS011;7748;52.474;13.454;2022-12-10T00:31:35;23.90;;;12.25;;
15293;SDS011;7748;52.474;13.454;2022-12-10T00:34:06;20.75;;;11.55;;
15293;SDS011;7748;52.474;13.454;2022-12-10T00:36:37;22.77;;;12.10;;
15293;SDS011;7748;52.474;13.454;2022-12-10T00:39:06;21.20;;;11.18;;
15293;SDS011;7748;52.474;13.454;2022-12-10T00:41:35;22.17;;;11.95;;
15293;SDS011;7748;52.474;13.454;2022-12-10T00:44:04;25.10;;;12.40;;
15293;SDS011;7748;52.474;13.454;2022-12-10T00:46:32;23.23;;;12.18;;
15293;SDS011;7748;52.474;13.454;2022-12-10T00:49:00;21.17;;;12.30;;
15293;SDS011;7748;52.474;13.454;2022-12-10T00:51:29;19.38;;;11.52;;
15293;SDS011;7748;52.474;13.454;2022-12-10T00:53:58;18.95;;;12.32;;
15293;SDS011;7748;52.474;13.454;2022-12-10T00:56:26;23.08;;;12.88;;
15293;SDS011;7748;52.474;13.454;2022-12-10T00:58:57;21.23;;;11.27;;
15293;SDS011;7748;52.474;13.454;2022-12-10T01:01:28;25.83;;;12.30;;
15293;SDS011;7748;52.474;13.454;2022-12-10T01:03:59;21.10;;;11.07;;
15293;SDS011;7748;52.474;13.454;2022-12-10T01:06:30;22.90;;;12.15;;
15293;SDS011;7748;52.474;13.454;2022-12-10T01:09:00;22.08;;;13.10;;
15293;SDS011;7748;52.474;13.454;2022-12-10T01:11:31;23.27;;;12.27;;
15293;SDS011;7748;52.474;13.454;2022-12-10T01:14:02;26.05;;;12.77;;
15293;SDS011;7748;52.474;13.454;2022-12-10T01:16:30;24.98;;;12.13;;
15293;SDS011;7748;52.474;13.454;2022-12-10T01:18:58;25.48;;;12.00;;
15293;SDS011;7748;52.474;13.454;2022-12-10T01:21:27;29.05;;;12.18;;
15293;SDS011;7748;52.474;13.454;2022-12-10T01:23:56;20.10;;;11.52;;
15293;SDS011;7748;52.474;13.454;2022-12-10T01:26:25;26.10;;;12.48;;
15293;SDS011;7748;52.474;13.454;2022-12-10T01:28:55;25.23;;;12.00;;
15293;SDS011;7748;52.474;13.454;2022-12-10T01:31:26;29.17;;;12.90;;
15293;SDS011;7748;52.474;13.454;2022-12-10T01:33:55;25.55;;;12.15;;
15293;SDS011;7748;52.474;13.454;2022-12-10T01:36:25;22.58;;;12.07;;
15293;SDS011;7748;52.474;13.454;2022-12-10T01:38:55;20.60;;;12.50;;
15293;SDS011;7748;52.474;13.454;2022-12-10T01:41:24;25.33;;;12.65;;
15293;SDS011;7748;52.474;13.454;2022-12-10T01:43:55;22.10;;;12.32;;
15293;SDS011;7748;52.474;13.454;2022-12-10T01:46:27;22.15;;;11.98;;
15293;SDS011;7748;52.474;13.454;2022-12-10T01:48:56;23.48;;;10.80;;
15293;SDS011;7748;52.474;13.454;2022-12-10T01:51:25;16.30;;;9.98;;
15293;SDS011;7748;52.474;13.454;2022-12-10T01:53:55;23.77;;;12.65;;
15293;SDS011;7748;52.474;13.454;2022-12-10T01:56:23;20.55;;;11.77;;
15293;SDS011;7748;52.474;13.454;2022-12-10T01:58:53;23.30;;;12.18;;
15293;SDS011;7748;52.474;13.454;2022-12-10T02:01:24;20.02;;;11.27;;
15293;SDS011;7748;52.474;13.454;2022-12-10T02:04:12;24.73;;;12.57;;
15293;SDS011;7748;52.474;13.454;2022-12-10T02:06:53;24.30;;;13.35;;
15293;SDS011;7748;52.474;13.454;2022-12-10T02:09:25;18.98;;;10.95;;
15293;SDS011;7748;52.474;13.454;2022-12-10T02:12:02;23.95;;;12.93;;
15293;SDS011;7748;52.474;13.454;2022-12-10T02:14:39;17.30;;;11.13;;
15293;SDS011;7748;52.474;13.454;2022-12-10T02:17:17;23.42;;;12.07;;
15293;SDS011;7748;52.474;13.454;2022-12-10T02:20:02;15.95;;;10.27;;
15293;SDS011;7748;52.474;13.454;2022-12-10T02:22:36;20.65;;;12.05;;
15293;SDS011;7748;52.474;13.454;2022-12-10T02:25:08;22.88;;;13.00;;
15293;SDS011;7748;52.474;13.454;2022-12-10T02:27:42;20.42;;;11.50;;
15293;SDS011;7748;52.474;13.454;2022-12-10T02:30:19;20.58;;;10.73;;
15293;SDS011;7748;52.474;13.454;2022-12-10T02:32:47;18.60;;;10.45;;
15293;SDS011;7748;52.474;13.454;2022-12-10T02:35:19;17.45;;;10.93;;
15293;SDS011;7748;52.474;13.454;2022-12-10T02:37:51;21.83;;;11.43;;
15293;SDS011;7748;52.474;13.454;2022-12-10T02:40:23;20.50;;;11.55;;
15293;SDS011;7748;52.474;13.454;2022-12-10T02:42:54;21.33;;;12.80;;
15293;SDS011;7748;52.474;13.454;2022-12-10T02:45:24;21.30;;;12.60;;
15293;SDS011;7748;52.474;13.454;2022-12-10T02:47:57;21.58;;;12.07;;
15293;SDS011;7748;52.474;13.454;2022-12-10T02:50:26;22.38;;;11.82;;
15293;SDS011;7748;52.474;13.454;2022-12-10T02:52:54;25.15;;;12.75;;
15293;SDS011;7748;52.474;13.454;2022-12-10T02:55:22;22.10;;;12.00;;
15293;SDS011;7748;52.474;13.454;2022-12-10T02:57:54;22.83;;;12.57;;
15293;SDS011;7748;52.474;13.454;2022-12-10T03:00:33;26.92;;;12.65;;
15293;SDS011;7748;52.474;13.454;2022-12-10T03:03:16;22.23;;;12.05;;
15293;SDS011;7748;52.474;13.454;2022-12-10T03:05:54;26.00;;;12.82;;
15293;SDS011;7748;52.474;13.454;2022-12-10T03:08:28;21.45;;;12.45;;
15293;SDS011;7748;52.474;13.454;2022-12-10T03:11:02;25.60;;;13.35;;
15293;SDS011;7748;52.474;13.454;2022-12-10T03:13:37;22.98;;;12.10;;
15293;SDS011;7748;52.474;13.454;2022-12-10T03:16:11;29.15;;;14.63;;
15293;SDS011;7748;52.474;13.454;2022-12-10T03:18:41;24.00;;;12.43;;
15293;SDS011;7748;52.474;13.454;2022-12-10T03:21:11;27.60;;;13.63;;
15293;SDS011;7748;52.474;13.454;2022-12-10T03:23:43;28.95;;;13.13;;
15293;SDS011;7748;52.474;13.454;2022-12-10T03:26:13;23.80;;;12.63;;
15293;SDS011;7748;52.474;13.454;2022-12-10T03:28:42;28.20;;;14.40;;
15293;SDS011;7748;52.474;13.454;2022-12-10T03:31:15;31.73;;;15.25;;
15293;SDS011;7748;52.474;13.454;2022-12-10T03:33:46;25.08;;;12.63;;
15293;SDS011;7748;52.474;13.454;2022-12-10T03:36:15;33.63;;;15.68;;
15293;SDS011;7748;52.474;13.454;2022-12-10T03:38:46;28.70;;;14.10;;
15293;SDS011;7748;52.474;13.454;2022-12-10T03:41:13;23.15;;;13.95;;
15293;SDS011;7748;52.474;13.454;2022-12-10T03:43:51;28.90;;;14.73;;
15293;SDS011;7748;52.474;13.454;2022-12-10T03:46:22;26.10;;;13.90;;
15293;SDS011;7748;52.474;13.454;2022-12-10T03:48:52;28.13;;;15.13;;
15293;SDS011;7748;52.474;13.454;2022-12-10T03:51:20;29.67;;;15.40;;
15293;SDS011;7748;52.474;13.454;2022-12-10T03:53:48;27.80;;;14.75;;
15293;SDS011;7748;52.474;13.454;2022-12-10T03:56:17;30.88;;;15.93;;
15293;SDS011;7748;52.474;13.454;2022-12-10T03:58:45;30.23;;;15.38;;
15293;SDS011;7748;52.474;13.454;2022-12-10T04:01:13;27.10;;;14.57;;
15293;SDS011;7748;52.474;13.454;2022-12-10T04:03:43;26.52;;;14.45;;
15293;SDS011;7748;52.474;13.454;2022-12-10T04:06:13;29.85;;;16.42;;
15293;SDS011;7748;52.474;13.454;2022-12-10T04:08:42;27.58;;;14.45;;
15293;SDS011;7748;52.474;13.454;2022-12-10T04:11:11;29.42;;;15.30;;
15293;SDS011;7748;52.474;13.454;2022-12-10T04:13:41;33.15;;;15.75;;
15293;SDS011;7748;52.474;13.454;2022-12-10T04:16:27;30.73;;;15.77;;
15293;SDS011;7748;52.474;13.454;2022-12-10T04:18:58;36.65;;;16.80;;
15293;SDS011;7748;52.474;13.454;2022-12-10T04:21:27;28.05;;;15.80;;
15293;SDS011;7748;52.474;13.454;2022-12-10T04:24:14;27.88;;;14.18;;
15293;SDS011;7748;52.474;13.454;2022-12-10T04:27:02;30.10;;;16.52;;
15293;SDS011;7748;52.474;13.454;2022-12-10T04:29:32;30.60;;;15.63;;
15293;SDS011;7748;52.474;13.454;2022-12-10T04:32:00;27.48;;;14.90;;
15293;SDS011;7748;52.474;13.454;2022-12-10T04:34:30;26.27;;;14.35;;
15293;SDS011;7748;52.474;13.454;2022-12-10T04:36:58;32.70;;;15.63;;
15293;SDS011;7748;52.474;13.454;2022-12-10T04:39:26;29.17;;;15.35;;
15293;SDS011;7748;52.474;13.454;2022-12-10T04:41:54;28.27;;;15.07;;
15293;SDS011;7748;52.474;13.454;2022-12-10T04:44:22;27.35;;;15.05;;
15293;SDS011;7748;52.474;13.454;2022-12-10T04:46:50;30.13;;;15.35;;
15293;SDS011;7748;52.474;13.454;2022-12-10T04:49:17;27.77;;;15.50;;
15293;SDS011;7748;52.474;13.454;2022-12-10T04:51:47;27.35;;;14.55;;
15293;SDS011;7748;52.474;13.454;2022-12-10T04:54:15;26.27;;;14.65;;
15293;SDS011;7748;52.474;13.454;2022-12-10T04:56:43;27.75;;;14.95;;
15293;SDS011;7748;52.474;13.454;2022-12-10T04:59:11;26.90;;;15.57;;
15293;SDS011;7748;52.474;13.454;2022-12-10T05:01:40;27.00;;;15.07;;
15293;SDS011;7748;52.474;13.454;2022-12-10T05:04:09;25.85;;;13.63;;
15293;SDS011;7748;52.474;13.454;2022-12-10T05:06:39;31.67;;;15.60;;
15293;SDS011;7748;52.474;13.454;2022-12-10T05:09:09;28.48;;;15.50;;
15293;SDS011;7748;52.474;13.454;2022-12-10T05:11:37;29.67;;;14.50;;
15293;SDS011;7748;52.474;13.454;2022-12-10T05:14:05;29.83;;;15.43;;
15293;SDS011;7748;52.474;13.454;2022-12-10T05:16:33;29.90;;;15.82;;
15293;SDS011;7748;52.474;13.454;2022-12-10T05:19:01;30.30;;;15.95;;
15293;SDS011;7748;52.474;13.454;2022-12-10T05:21:29;27.10;;;15.00;;
15293;SDS011;7748;52.474;13.454;2022-12-10T05:24:13;31.58;;;15.32;;
15293;SDS011;7748;52.474;13.454;2022-12-10T05:26:41;22.63;;;13.48;;
15293;SDS011;7748;52.474;13.454;2022-12-10T05:29:09;24.65;;;13.30;;
15293;SDS011;7748;52.474;13.454;2022-12-10T05:31:39;24.40;;;13.85;;
15293;SDS011;7748;52.474;13.454;2022-12-10T05:34:08;29.38;;;14.27;;
15293;SDS011;7748;52.474;13.454;2022-12-10T05:36:37;25.30;;;13.88;;
15293;SDS011;7748;52.474;13.454;2022-12-10T05:39:06;26.38;;;14.13;;
15293;SDS011;7748;52.474;13.454;2022-12-10T05:41:36;23.27;;;13.50;;
15293;SDS011;7748;52.474;13.454;2022-12-10T05:44:05;22.77;;;13.10;;
15293;SDS011;7748;52.474;13.454;2022-12-10T05:46:35;23.20;;;12.75;;
15293;SDS011;7748;52.474;13.454;2022-12-10T05:49:03;24.90;;;14.20;;
15293;SDS011;7748;52.474;13.454;2022-12-10T05:51:34;23.15;;;13.73;;
15293;SDS011;7748;52.474;13.454;2022-12-10T05:54:03;25.00;;;12.98;;
15293;SDS011;7748;52.474;13.454;2022-12-10T05:56:32;25.60;;;14.38;;
15293;SDS011;7748;52.474;13.454;2022-12-10T05:59:02;19.50;;;12.65;;
15293;SDS011;7748;52.474;13.454;2022-12-10T06:01:31;26.48;;;11.82;;
15293;SDS011;7748;52.474;13.454;2022-12-10T06:04:01;26.42;;;12.32;;
15293;SDS011;7748;52.474;13.454;2022-12-10T06:06:31;23.45;;;13.32;;
15293;SDS011;7748;52.474;13.454;2022-12-10T06:09:01;25.60;;;12.40;;
15293;SDS011;7748;52.474;13.454;2022-12-10T06:11:29;21.48;;;11.55;;
15293;SDS011;7748;52.474;13.454;2022-12-10T06:13:58;21.58;;;12.80;;
15293;SDS011;7748;52.474;13.454;2022-12-10T06:16:27;22.15;;;12.73;;
15293;SDS011;7748;52.474;13.454;2022-12-10T06:18:56;22.38;;;13.00;;
15293;SDS011;7748;52.474;13.454;2022-12-10T06:21:24;20.80;;;12.55;;
15293;SDS011;7748;52.474;13.454;2022-12-10T06:23:53;20.02;;;11.32;;
15293;SDS011;7748;52.474;13.454;2022-12-10T06:26:21;18.92;;;10.70;;
15293;SDS011;7748;52.474;13.454;2022-12-10T06:28:51;20.73;;;11.55;;
15293;SDS011;7748;52.474;13.454;2022-12-10T06:31:20;19.92;;;11.73;;
15293;SDS011;7748;52.474;13.454;2022-12-10T06:33:50;18.70;;;11.48;;
15293;SDS011;7748;52.474;13.454;2022-12-10T06:36:18;19.70;;;12.00;;
15293;SDS011;7748;52.474;13.454;2022-12-10T06:38:47;17.30;;;11.32;;
15293;SDS011;7748;52.474;13.454;2022-12-10T06:41:15;22.33;;;11.27;;
15293;SDS011;7748;52.474;13.454;2022-12-10T06:43:46;20.42;;;11.85;;
15293;SDS011;7748;52.474;13.454;2022-12-10T06:46:15;17.95;;;10.63;;
15293;SDS011;7748;52.474;13.454;2022-12-10T06:48:45;18.95;;;11.00;;
15293;SDS011;7748;52.474;13.454;2022-12-10T06:51:14;18.98;;;11.95;;
15293;SDS011;7748;52.474;13.454;2022-12-10T06:53:43;22.40;;;12.60;;
15293;SDS011;7748;52.474;13.454;2022-12-10T06:56:12;20.08;;;12.13;;
15293;SDS011;7748;52.474;13.454;2022-12-10T06:58:42;16.85;;;9.90;;
15293;SDS011;7748;52.474;13.454;2022-12-10T07:01:11;16.00;;;10.77;;
15293;SDS011;7748;52.474;13.454;2022-12-10T07:03:41;18.35;;;10.70;;
15293;SDS011;7748;52.474;13.454;2022-12-10T07:06:10;18.95;;;11.00;;
15293;SDS011;7748;52.474;13.454;2022-12-10T07:08:40;15.90;;;10.00;;
15293;SDS011;7748;52.474;13.454;2022-12-10T07:11:09;18.83;;;11.60;;
15293;SDS011;7748;52.474;13.454;2022-12-10T07:13:38;15.02;;;9.55;;
15293;SDS011;7748;52.474;13.454;2022-12-10T07:16:11;18.00;;;11.00;;
15293;SDS011;7748;52.474;13.454;2022-12-10T07:18:40;19.30;;;11.43;;
15293;SDS011;7748;52.474;13.454;2022-12-10T07:21:18;18.67;;;11.88;;
15293;SDS011;7748;52.474;13.454;2022-12-10T07:23:51;16.83;;;10.52;;
15293;SDS011;7748;52.474;13.454;2022-12-10T07:26:21;20.65;;;12.02;;
15293;SDS011;7748;52.474;13.454;2022-12-10T07:28:49;19.10;;;11.43;;
15293;SDS011;7748;52.474;13.454;2022-12-10T07:31:19;17.52;;;10.13;;
15293;SDS011;7748;52.474;13.454;2022-12-10T07:33:49;19.95;;;10.95;;
15293;SDS011;7748;52.474;13.454;2022-12-10T07:36:18;15.38;;;8.77;;
15293;SDS011;7748;52.474;13.454;2022-12-10T07:38:47;16.25;;;10.93;;
15293;SDS011;7748;52.474;13.454;2022-12-10T07:41:17;16.60;;;10.43;;
15293;SDS011;7748;52.474;13.454;2022-12-10T07:43:45;16.80;;;10.75;;
15293;SDS011;7748;52.474;13.454;2022-12-10T07:46:14;16.98;;;10.90;;
15293;SDS011;7748;52.474;13.454;2022-12-10T07:48:44;13.95;;;9.85;;
15293;SDS011;7748;52.474;13.454;2022-12-10T07:51:14;14.63;;;9.70;;
15293;SDS011;7748;52.474;13.454;2022-12-10T07:53:43;15.40;;;10.40;;
15293;SDS011;7748;52.474;13.454;2022-12-10T07:56:11;19.15;;;10.40;;
15293;SDS011;7748;52.474;13.454;2022-12-10T07:58:42;13.13;;;9.63;;
15293;SDS011;7748;52.474;13.454;2022-12-10T08:01:11;14.57;;;9.25;;
15293;SDS011;7748;52.474;13.454;2022-12-10T08:03:41;18.20;;;11.05;;
15293;SDS011;7748;52.474;13.454;2022-12-10T08:06:10;17.52;;;10.55;;
15293;SDS011;7748;52.474;13.454;2022-12-10T08:08:40;15.48;;;10.25;;
15293;SDS011;7748;52.474;13.454;2022-12-10T08:11:09;17.05;;;10.20;;
15293;SDS011;7748;52.474;13.454;2022-12-10T08:13:38;16.85;;;10.50;;
15293;SDS011;7748;52.474;13.454;2022-12-10T08:16:08;15.77;;;10.50;;
15293;SDS011;7748;52.474;13.454;2022-12-10T08:18:39;16.23;;;10.38;;
15293;SDS011;7748;52.474;13.454;2022-12-10T08:21:09;17.35;;;10.45;;
15293;SDS011;7748;52.474;13.454;2022-12-10T08:23:38;14.68;;;9.60;;
15293;SDS011;7748;52.474;13.454;2022-12-10T08:26:08;13.60;;;9.32;;
15293;SDS011;7748;52.474;13.454;2022-12-10T08:28:37;14.88;;;11.25;;
15293;SDS011;7748;52.474;13.454;2022-12-10T08:31:06;24.33;;;14.40;;
15293;SDS011;7748;52.474;13.454;2022-12-10T08:33:38;29.45;;;17.90;;
15293;SDS011;7748;52.474;13.454;2022-12-10T08:36:07;17.25;;;11.48;;
15293;SDS011;7748;52.474;13.454;2022-12-10T08:38:37;14.40;;;10.07;;
15293;SDS011;7748;52.474;13.454;2022-12-10T08:41:06;15.60;;;10.52;;
15293;SDS011;7748;52.474;13.454;2022-12-10T08:43:35;19.40;;;10.15;;
15293;SDS011;7748;52.474;13.454;2022-12-10T08:46:03;19.60;;;11.30;;
15293;SDS011;7748;52.474;13.454;2022-12-10T08:48:33;14.43;;;9.60;;
15293;SDS011;7748;52.474;13.454;2022-12-10T08:51:02;17.55;;;9.68;;
15293;SDS011;7748;52.474;13.454;2022-12-10T08:53:31;20.40;;;10.70;;
15293;SDS011;7748;52.474;13.454;2022-12-10T08:55:59;14.63;;;9.82;;
15293;SDS011;7748;52.474;13.454;2022-12-10T08:58:30;13.20;;;8.80;;
15293;SDS011;7748;52.474;13.454;2022-12-10T09:00:58;17.02;;;9.82;;
15293;SDS011;7748;52.474;13.454;2022-12-10T09:03:29;16.70;;;10.63;;
15293;SDS011;7748;52.474;13.454;2022-12-10T09:06:02;21.02;;;11.40;;
15293;SDS011;7748;52.474;13.454;2022-12-10T09:08:31;14.95;;;10.40;;
15293;SDS011;7748;52.474;13.454;2022-12-10T09:11:03;16.23;;;10.38;;
15293;SDS011;7748;52.474;13.454;2022-12-10T09:13:32;15.45;;;10.35;;
15293;SDS011;7748;52.474;13.454;2022-12-10T09:16:00;15.52;;;10.80;;
15293;SDS011;7748;52.474;13.454;2022-12-10T09:18:29;16.40;;;10.25;;
15293;SDS011;7748;52.474;13.454;2022-12-10T09:20:57;18.65;;;9.95;;
15293;SDS011;7748;52.474;13.454;2022-12-10T09:23:34;16.55;;;11.25;;
15293;SDS011;7748;52.474;13.454;2022-12-10T09:26:04;17.13;;;11.18;;
15293;SDS011;7748;52.474;13.454;2022-12-10T09:28:33;18.33;;;11.45;;
15293;SDS011;7748;52.474;13.454;2022-12-10T09:31:03;17.23;;;10.73;;
15293;SDS011;7748;52.474;13.454;2022-12-10T09:33:41;15.48;;;9.15;;
15293;SDS011;7748;52.474;13.454;2022-12-10T09:36:10;14.75;;;9.85;;
15293;SDS011;7748;52.474;13.454;2022-12-10T09:38:41;15.45;;;10.30;;
15293;SDS011;7748;52.474;13.454;2022-12-10T09:41:15;16.15;;;9.95;;
15293;SDS011;7748;52.474;13.454;2022-12-10T09:43:59;19.50;;;11.05;;
15293;SDS011;7748;52.474;13.454;2022-12-10T09:46:36;15.15;;;10.27;;
15293;SDS011;7748;52.474;13.454;2022-12-10T09:49:13;18.20;;;10.75;;
15293;SDS011;7748;52.474;13.454;2022-12-10T09:51:49;20.58;;;10.20;;
15293;SDS011;7748;52.474;13.454;2022-12-10T09:54:24;14.80;;;10.50;;
15293;SDS011;7748;52.474;13.454;2022-12-10T09:56:54;18.45;;;11.95;;
15293;SDS011;7748;52.474;13.454;2022-12-10T09:59:24;16.55;;;10.73;;
15293;SDS011;7748;52.474;13.454;2022-12-10T10:02:00;16.88;;;11.07;;
15293;SDS011;7748;52.474;13.454;2022-12-10T10:04:31;16.85;;;10.75;;
15293;SDS011;7748;52.474;13.454;2022-12-10T10:06:59;17.48;;;11.80;;
15293;SDS011;7748;52.474;13.454;2022-12-10T10:09:28;17.10;;;11.25;;
15293;SDS011;7748;52.474;13.454;2022-12-10T10:11:57;15.88;;;10.40;;
15293;SDS011;7748;52.474;13.454;2022-12-10T10:14:32;17.88;;;10.30;;
15293;SDS011;7748;52.474;13.454;2022-12-10T10:17:01;17.27;;;10.63;;
15293;SDS011;7748;52.474;13.454;2022-12-10T10:19:31;17.73;;;9.55;;
15293;SDS011;7748;52.474;13.454;2022-12-10T10:22:09;15.80;;;11.07;;
15293;SDS011;7748;52.474;13.454;2022-12-10T10:24:41;17.38;;;10.88;;
15293;SDS011;7748;52.474;13.454;2022-12-10T10:27:13;15.48;;;9.95;;
15293;SDS011;7748;52.474;13.454;2022-12-10T10:29:43;19.58;;;11.68;;
15293;SDS011;7748;52.474;13.454;2022-12-10T10:32:13;17.73;;;12.25;;
15293;SDS011;7748;52.474;13.454;2022-12-10T10:34:43;15.45;;;11.48;;
15293;SDS011;7748;52.474;13.454;2022-12-10T10:37:14;16.63;;;11.70;;
15293;SDS011;7748;52.474;13.454;2022-12-10T10:39:48;15.60;;;10.30;;
15293;SDS011;7748;52.474;13.454;2022-12-10T10:42:23;18.10;;;11.65;;
15293;SDS011;7748;52.474;13.454;2022-12-10T10:44:55;15.13;;;11.57;;
15293;SDS011;7748;52.474;13.454;2022-12-10T10:47:24;16.65;;;10.13;;
15293;SDS011;7748;52.474;13.454;2022-12-10T10:49:59;18.67;;;11.27;;
15293;SDS011;7748;52.474;13.454;2022-12-10T10:52:28;17.95;;;11.55;;
15293;SDS011;7748;52.474;13.454;2022-12-10T10:54:59;16.52;;;10.07;;
15293;SDS011;7748;52.474;13.454;2022-12-10T10:57:29;19.17;;;11.13;;
15293;SDS011;7748;52.474;13.454;2022-12-10T11:00:03;18.42;;;10.63;;
15293;SDS011;7748;52.474;13.454;2022-12-10T11:02:36;19.30;;;11.13;;
15293;SDS011;7748;52.474;13.454;2022-12-10T11:05:14;15.52;;;10.90;;
15293;SDS011;7748;52.474;13.454;2022-12-10T11:07:44;15.32;;;10.85;;
15293;SDS011;7748;52.474;13.454;2022-12-10T11:10:17;16.70;;;10.88;;
15293;SDS011;7748;52.474;13.454;2022-12-10T11:12:53;20.13;;;12.98;;
15293;SDS011;7748;52.474;13.454;2022-12-10T11:15:30;18.27;;;10.80;;
15293;SDS011;7748;52.474;13.454;2022-12-10T11:18:01;16.10;;;11.57;;
15293;SDS011;7748;52.474;13.454;2022-12-10T11:20:30;18.88;;;12.25;;
15293;SDS011;7748;52.474;13.454;2022-12-10T11:23:08;16.45;;;10.60;;
15293;SDS011;7748;52.474;13.454;2022-12-10T11:25:41;23.25;;;11.98;;
15293;SDS011;7748;52.474;13.454;2022-12-10T11:28:19;19.45;;;11.48;;
15293;SDS011;7748;52.474;13.454;2022-12-10T11:31:04;18.58;;;10.50;;
15293;SDS011;7748;52.474;13.454;2022-12-10T11:33:47;16.60;;;10.80;;
15293;SDS011;7748;52.474;13.454;2022-12-10T11:36:23;17.23;;;10.85;;
15293;SDS011;7748;52.474;13.454;2022-12-10T11:39:10;19.38;;;11.10;;
15293;SDS011;7748;52.474;13.454;2022-12-10T11:41:55;17.75;;;12.32;;
15293;SDS011;7748;52.474;13.454;2022-12-10T11:44:34;16.90;;;11.00;;
15293;SDS011;7748;52.474;13.454;2022-12-10T11:47:15;17.08;;;11.23;;
15293;SDS011;7748;52.474;13.454;2022-12-10T11:49:55;23.70;;;12.95;;
15293;SDS011;7748;52.474;13.454;2022-12-10T11:52:39;17.80;;;11.55;;
15293;SDS011;7748;52.474;13.454;2022-12-10T11:55:19;18.00;;;10.70;;
15293;SDS011;7748;52.474;13.454;2022-12-10T11:57:59;19.23;;;11.48;;
15293;SDS011;7748;52.474;13.454;2022-12-10T12:00:52;19.08;;;11.32;;
15293;SDS011;7748;52.474;13.454;2022-12-10T12:03:36;19.55;;;11.52;;
15293;SDS011;7748;52.474;13.454;2022-12-10T12:06:27;17.55;;;11.75;;
15293;SDS011;7748;52.474;13.454;2022-12-10T12:09:15;18.63;;;11.02;;
15293;SDS011;7748;52.474;13.454;2022-12-10T12:11:55;20.98;;;11.68;;
15293;SDS011;7748;52.474;13.454;2022-12-10T12:14:39;19.15;;;11.63;;
15293;SDS011;7748;52.474;13.454;2022-12-10T12:17:16;22.08;;;12.48;;
15293;SDS011;7748;52.474;13.454;2022-12-10T12:19:50;19.08;;;12.05;;
15293;SDS011;7748;52.474;13.454;2022-12-10T12:22:23;16.48;;;10.35;;
15293;SDS011;7748;52.474;13.454;2022-12-10T12:24:54;18.25;;;11.85;;
15293;SDS011;7748;52.474;13.454;2022-12-10T12:27:33;17.58;;;11.10;;
15293;SDS011;7748;52.474;13.454;2022-12-10T12:30:12;20.38;;;11.75;;
15293;SDS011;7748;52.474;13.454;2022-12-10T12:32:49;20.08;;;12.50;;
15293;SDS011;7748;52.474;13.454;2022-12-10T12:35:23;17.50;;;10.63;;
15293;SDS011;7748;52.474;13.454;2022-12-10T12:38:00;22.17;;;12.27;;
15293;SDS011;7748;52.474;13.454;2022-12-10T12:40:47;20.67;;;12.35;;
15293;SDS011;7748;52.474;13.454;2022-12-10T12:43:24;17.40;;;11.65;;
15293;SDS011;7748;52.474;13.454;2022-12-10T12:46:00;19.20;;;11.65;;
15293;SDS011;7748;52.474;13.454;2022-12-10T12:48:32;16.15;;;9.85;;
15293;SDS011;7748;52.474;13.454;2022-12-10T12:51:09;19.38;;;12.38;;
15293;SDS011;7748;52.474;13.454;2022-12-10T12:53:39;18.60;;;10.50;;
15293;SDS011;7748;52.474;13.454;2022-12-10T12:56:14;20.30;;;12.68;;
15293;SDS011;7748;52.474;13.454;2022-12-10T12:58:53;21.95;;;11.80;;
15293;SDS011;7748;52.474;13.454;2022-12-10T13:01:32;18.23;;;11.50;;
15293;SDS011;7748;52.474;13.454;2022-12-10T13:04:05;19.05;;;10.48;;
15293;SDS011;7748;52.474;13.454;2022-12-10T13:06:34;20.77;;;13.32;;
15293;SDS011;7748;52.474;13.454;2022-12-10T13:09:16;20.80;;;12.68;;
15293;SDS011;7748;52.474;13.454;2022-12-10T13:14:55;18.67;;;12.18;;
15293;SDS011;7748;52.474;13.454;2022-12-10T13:17:32;17.27;;;11.30;;
15293;SDS011;7748;52.474;13.454;2022-12-10T13:23:00;19.30;;;12.00;;
15293;SDS011;7748;52.474;13.454;2022-12-10T13:25:40;22.20;;;13.57;;
15293;SDS011;7748;52.474;13.454;2022-12-10T13:28:26;18.52;;;12.10;;
15293;SDS011;7748;52.474;13.454;2022-12-10T13:33:51;19.33;;;11.57;;
15293;SDS011;7748;52.474;13.454;2022-12-10T13:36:24;19.25;;;12.30;;
15293;SDS011;7748;52.474;13.454;2022-12-10T13:38:55;18.30;;;11.27;;
15293;SDS011;7748;52.474;13.454;2022-12-10T13:41:38;17.30;;;11.52;;
15293;SDS011;7748;52.474;13.454;2022-12-10T13:44:37;20.05;;;12.27;;
15293;SDS011;7748;52.474;13.454;2022-12-10T13:47:23;18.33;;;12.02;;
15293;SDS011;7748;52.474;13.454;2022-12-10T13:50:17;18.55;;;11.35;;
15293;SDS011;7748;52.474;13.454;2022-12-10T13:52:49;16.15;;;10.98;;
15293;SDS011;7748;52.474;13.454;2022-12-10T13:55:29;19.63;;;11.68;;
15293;SDS011;7748;52.474;13.454;2022-12-10T13:58:17;24.02;;;11.73;;
15293;SDS011;7748;52.474;13.454;2022-12-10T14:01:06;21.63;;;12.65;;
15293;SDS011;7748;52.474;13.454;2022-12-10T14:03:57;20.10;;;13.20;;
15293;SDS011;7748;52.474;13.454;2022-12-10T14:06:50;15.93;;;10.88;;
15293;SDS011;7748;52.474;13.454;2022-12-10T14:09:19;19.58;;;11.15;;
15293;SDS011;7748;52.474;13.454;2022-12-10T14:11:53;17.98;;;10.50;;
15293;SDS011;7748;52.474;13.454;2022-12-10T14:14:25;18.35;;;11.52;;
15293;SDS011;7748;52.474;13.454;2022-12-10T14:16:59;18.05;;;10.82;;
15293;SDS011;7748;52.474;13.454;2022-12-10T14:19:33;21.85;;;12.02;;
15293;SDS011;7748;52.474;13.454;2022-12-10T14:22:05;22.98;;;12.32;;
15293;SDS011;7748;52.474;13.454;2022-12-10T14:24:36;18.00;;;11.10;;
15293;SDS011;7748;52.474;13.454;2022-12-10T14:27:25;18.13;;;11.80;;
15293;SDS011;7748;52.474;13.454;2022-12-10T14:29:58;19.88;;;10.93;;
15293;SDS011;7748;52.474;13.454;2022-12-10T14:32:29;21.42;;;12.85;;
15293;SDS011;7748;52.474;13.454;2022-12-10T14:35:01;19.10;;;11.80;;
15293;SDS011;7748;52.474;13.454;2022-12-10T14:37:33;25.20;;;13.10;;
15293;SDS011;7748;52.474;13.454;2022-12-10T14:42:46;22.83;;;13.40;;
15293;SDS011;7748;52.474;13.454;2022-12-10T14:45:15;20.75;;;10.18;;
15293;SDS011;7748;52.474;13.454;2022-12-10T14:47:44;17.05;;;11.45;;
15293;SDS011;7748;52.474;13.454;2022-12-10T14:50:16;20.10;;;12.35;;
15293;SDS011;7748;52.474;13.454;2022-12-10T14:52:53;27.25;;;14.18;;
15293;SDS011;7748;52.474;13.454;2022-12-10T14:55:21;22.33;;;12.10;;
15293;SDS011;7748;52.474;13.454;2022-12-10T14:57:51;28.48;;;13.68;;
15293;SDS011;7748;52.474;13.454;2022-12-10T15:00:25;26.20;;;13.90;;
15293;SDS011;7748;52.474;13.454;2022-12-10T15:02:55;23.38;;;13.85;;
15293;SDS011;7748;52.474;13.454;2022-12-10T15:05:27;19.88;;;13.68;;